Chamblee, GA (30366)

3:02 AM EDT on July 07, 2015 (GMT -0400)
North Briarcliff Neighborhood | | Change Station
CLOSE
Current Station
Personal Weather Station
Location: Atlanta, GA
Elevation: 985 ft
Nearby Weather Stations

Elev 985 ft 33.86 °N, 84.28 °W | Updated 3 minutes ago

Clear
Clear
70.3 °F
Feels Like 70.3 °F
N
0.0
Wind Variable Wind from South
Gusts 0.0 mph

Today
High -- | Low -- °F
--% Chance of Precip.
Yesterday
High -- | Low -- °F
Precip. -- in
6:32 AM 8:51 PM
Waning Gibbous, 68% visible
Pressure 30.08 in
Visibility 7.0 miles
Clouds Clear
Dew Point 67 °F
Humidity 89%
Rainfall 0.00 in
Snow Depth Not available.
UV 0 out of 12
Pollen 3.20 out of 12
Air Quality Not available.
Flu Activity Not available.
METAR KPDK 070653Z AUTO 00000KT 7SM CLR 22/21 A3013 RMK AO2 SLP186 T02170206 TSNO

More Conditions Fewer Conditions

Pressure 30.08 in
Visibility 7.0 miles
Clouds Clear
Dew Point 67 °F
Humidity 89%
Rainfall 0.00 in
Snow Depth Not available.
UV 0 out of 12
Pollen 3.20 out of 12
Air Quality Not available.
Flu Activity Not available.
METAR KPDK 070653Z AUTO 00000KT 7SM CLR 22/21 A3013 RMK AO2 SLP186 T02170206 TSNO

More Conditions Fewer Conditions

10-Day Weather Forecast

×

Almanac

Astronomy

Jul. 07, 2015 Rise Set
Actual Time
Civil Twilight
Nautical Twilight
Astronomical Twilight
Moon
Length of Visible Light
Length of Day
Tomorrow will be .
, % of the Moon is Illuminated

Today's Extremes

State Highs State Lows

Community

WunderPhotos

Upload Photos

1,835,756 photos uploaded!

WunderBlogs® & News

Nearby

Air Quality

  Air Quality AQ Index Pollutant
Not available.

Snow Depth

Station Depth Elevation

Earthquake Activity

City Distance Mag. Time & Date
Minimum magnitude displayed is 2.5.

Coastal Water Temperatures

Place Temperature

Stations

Nearby Weather Stations

Station Location Temp. Windchill Dew Point Humidity Wind Precip. Elev Updated Type